Time;durP1;ratioP1;P1;durP2;ratioP2;P2;SDS_P1;SDS_P2;PMS_P1;PMS_P2;Temp;Humidity;BMP_temperature;BMP_pressure;BME280_temperature;BME280_humidity;BME280_pressure;Samples;Min_cycle;Max_cycle;Signal;HPM_P1;HPM_P2
2022/12/10 00:03:34;;;;;;;24.73;10.38;;;;;;;;;;10431508;28;20222;-79
2022/12/10 00:08:35;;;;;;;21.10;8.73;;;;;;;;;;10428326;28;20239;-79
2022/12/10 00:13:37;;;;;;;20.50;8.38;;;;;;;;;;10449191;28;20218;-78
2022/12/10 00:18:39;;;;;;;21.70;9.20;;;;;;;;;;10423519;28;20214;-79
2022/12/10 00:23:40;;;;;;;20.23;8.77;;;;;;;;;;10429521;28;20288;-79
2022/12/10 00:28:42;;;;;;;14.15;7.65;;;;;;;;;;10435468;28;20207;-79
2022/12/10 00:33:43;;;;;;;20.10;9.30;;;;;;;;;;10414181;28;20746;-80
2022/12/10 00:38:45;;;;;;;18.05;7.75;;;;;;;;;;10421615;28;20714;-80
2022/12/10 00:43:46;;;;;;;28.20;8.77;;;;;;;;;;10440730;28;20257;-79
2022/12/10 00:48:48;;;;;;;20.17;8.75;;;;;;;;;;10429843;28;20311;-80
2022/12/10 00:53:50;;;;;;;20.92;9.00;;;;;;;;;;10443544;28;20242;-80
2022/12/10 00:58:52;;;;;;;22.55;8.93;;;;;;;;;;10444066;28;20223;-80
2022/12/10 01:03:54;;;;;;;20.73;9.02;;;;;;;;;;10425466;28;20242;-80
2022/12/10 01:08:56;;;;;;;15.63;8.00;;;;;;;;;;10431539;28;20294;-80
2022/12/10 01:13:58;;;;;;;16.80;7.50;;;;;;;;;;10425325;28;20761;-80
2022/12/10 01:18:59;;;;;;;17.80;8.50;;;;;;;;;;10428015;28;20250;-80
2022/12/10 01:24:01;;;;;;;17.60;8.30;;;;;;;;;;10425103;28;20220;-80
2022/12/10 01:29:03;;;;;;;19.48;8.10;;;;;;;;;;10430426;28;20208;-82
2022/12/10 01:34:05;;;;;;;19.85;9.80;;;;;;;;;;10435721;28;20292;-80
2022/12/10 01:39:07;;;;;;;20.63;9.93;;;;;;;;;;10439099;28;20215;-80
2022/12/10 01:44:08;;;;;;;28.67;9.85;;;;;;;;;;10458195;28;20632;-79
2022/12/10 01:49:12;;;;;;;26.20;11.57;;;;;;;;;;10429759;28;20250;-80
2022/12/10 01:54:15;;;;;;;27.02;10.32;;;;;;;;;;10424121;28;20703;-80
2022/12/10 01:59:16;;;;;;;29.00;11.80;;;;;;;;;;10461537;27;20559;-80
2022/12/10 02:04:36;;;;;;;26.80;11.93;;;;;;;;;;10457089;28;20956;-80
2022/12/10 02:09:40;;;;;;;27.87;10.83;;;;;;;;;;10446326;28;20233;-81
2022/12/10 02:15:00;;;;;;;27.92;10.15;;;;;;;;;;10414704;28;20674;-80
2022/12/10 02:20:08;;;;;;;28.05;11.13;;;;;;;;;;10455295;28;20211;-81
2022/12/10 02:25:11;;;;;;;29.58;11.40;;;;;;;;;;10418369;28;20715;-81
2022/12/10 02:30:14;;;;;;;31.85;10.93;;;;;;;;;;10445958;28;20168;-80
2022/12/10 02:35:27;;;;;;;27.30;9.73;;;;;;;;;;10431368;28;20206;-81
2022/12/10 02:40:31;;;;;;;28.77;11.27;;;;;;;;;;10455111;28;21246;-82
2022/12/10 02:45:34;;;;;;;25.42;9.75;;;;;;;;;;10449229;28;20223;-81
2022/12/10 02:50:36;;;;;;;17.95;8.85;;;;;;;;;;10421057;28;20214;-81
2022/12/10 02:55:55;;;;;;;25.42;9.48;;;;;;;;;;10419632;28;20219;-80
2022/12/10 03:01:02;;;;;;;26.58;11.10;;;;;;;;;;10428214;28;20242;-81
2022/12/10 03:06:14;;;;;;;27.48;11.02;;;;;;;;;;10425589;28;20590;-81
2022/12/10 03:11:17;;;;;;;22.45;10.10;;;;;;;;;;10425319;28;20211;-81
2022/12/10 03:16:18;;;;;;;21.35;9.15;;;;;;;;;;10460056;28;20245;-80
2022/12/10 03:21:20;;;;;;;24.77;9.77;;;;;;;;;;10437968;28;20215;-81
2022/12/10 03:26:22;;;;;;;20.27;7.85;;;;;;;;;;10426764;28;20784;-81
2022/12/10 03:31:24;;;;;;;18.63;8.37;;;;;;;;;;10424139;28;20222;-83
2022/12/10 03:36:27;;;;;;;27.33;8.77;;;;;;;;;;10418004;28;20966;-80
2022/12/10 03:41:28;;;;;;;17.13;7.50;;;;;;;;;;10419720;28;20272;-80
2022/12/10 03:46:30;;;;;;;24.10;10.40;;;;;;;;;;10420802;28;20227;-81
2022/12/10 03:51:31;;;;;;;20.90;9.60;;;;;;;;;;10422276;28;20246;-81
2022/12/10 03:56:32;;;;;;;18.57;8.60;;;;;;;;;;10419103;28;20544;-82
2022/12/10 04:01:33;;;;;;;17.37;7.37;;;;;;;;;;10429694;28;20218;-81
2022/12/10 04:06:34;;;;;;;15.38;7.28;;;;;;;;;;10424172;28;20253;-82
2022/12/10 04:11:35;;;;;;;17.47;7.33;;;;;;;;;;10422574;28;20218;-81
2022/12/10 04:16:37;;;;;;;16.30;8.15;;;;;;;;;;10420959;28;20358;-82
2022/12/10 04:27:08;;;;;;;18.50;7.70;;;;;;;;;;10421807;28;20216;-82
2022/12/10 04:32:10;;;;;;;21.30;9.00;;;;;;;;;;10421675;28;20211;-81
2022/12/10 04:37:11;;;;;;;25.10;9.23;;;;;;;;;;10430847;28;20223;-82
2022/12/10 04:42:13;;;;;;;20.17;9.90;;;;;;;;;;10425609;28;20215;-82
2022/12/10 04:47:14;;;;;;;23.67;11.23;;;;;;;;;;10430386;28;20769;-82
2022/12/10 04:52:16;;;;;;;24.00;9.23;;;;;;;;;;10442312;28;20337;-82
2022/12/10 04:57:17;;;;;;;21.23;9.37;;;;;;;;;;10421952;28;20229;-82
2022/12/10 05:02:18;;;;;;;26.95;8.75;;;;;;;;;;10425133;28;20222;-82
2022/12/10 05:07:19;;;;;;;21.88;9.55;;;;;;;;;;10428013;28;20211;-81
2022/12/10 05:12:20;;;;;;;22.33;9.93;;;;;;;;;;10426122;28;20781;-82
2022/12/10 05:17:21;;;;;;;26.90;9.63;;;;;;;;;;10425628;28;20218;-81
2022/12/10 05:27:42;;;;;;;15.23;7.50;;;;;;;;;;10424381;28;20392;-82
2022/12/10 05:32:43;;;;;;;16.35;7.55;;;;;;;;;;10424233;28;20245;-81
2022/12/10 05:37:44;;;;;;;23.30;9.30;;;;;;;;;;10422601;28;20219;-83
2022/12/10 05:42:45;;;;;;;21.57;8.67;;;;;;;;;;10422707;28;20218;-83
2022/12/10 05:47:47;;;;;;;21.67;9.30;;;;;;;;;;10421966;28;20580;-83
2022/12/10 05:52:50;;;;;;;16.13;6.97;;;;;;;;;;10421872;28;20210;-83
2022/12/10 05:57:51;;;;;;;20.83;7.32;;;;;;;;;;10459177;28;20222;-83
2022/12/10 06:02:53;;;;;;;17.73;8.07;;;;;;;;;;10411889;28;20223;-81
2022/12/10 06:07:54;;;;;;;23.50;9.17;;;;;;;;;;10415970;28;20222;-81
2022/12/10 06:12:55;;;;;;;23.83;9.20;;;;;;;;;;10414085;28;20223;-81
2022/12/10 06:17:57;;;;;;;22.63;7.80;;;;;;;;;;10417047;28;20219;-81
2022/12/10 06:22:58;;;;;;;18.07;7.77;;;;;;;;;;10418162;28;20230;-80
2022/12/10 06:27:59;;;;;;;15.17;7.07;;;;;;;;;;10416855;28;20364;-80
2022/12/10 06:33:00;;;;;;;22.30;8.27;;;;;;;;;;10426191;28;20305;-82
2022/12/10 06:38:01;;;;;;;16.53;8.00;;;;;;;;;;10420359;28;20778;-83
2022/12/10 06:43:02;;;;;;;20.15;7.88;;;;;;;;;;10425764;28;20297;-83
2022/12/10 06:48:03;;;;;;;27.90;9.17;;;;;;;;;;10454122;28;20297;-83
2022/12/10 06:53:04;;;;;;;19.95;9.00;;;;;;;;;;10430426;28;20232;-83
2022/12/10 06:58:06;;;;;;;24.97;8.57;;;;;;;;;;10428903;28;20562;-83
2022/12/10 07:03:07;;;;;;;21.27;9.30;;;;;;;;;;10424271;28;20219;-86
2022/12/10 07:08:08;;;;;;;28.23;8.67;;;;;;;;;;10463027;28;20245;-86
2022/12/10 07:13:09;;;;;;;23.27;8.03;;;;;;;;;;10436108;28;20219;-86
2022/12/10 07:18:10;;;;;;;20.60;8.90;;;;;;;;;;10411082;28;20240;-86
2022/12/10 07:23:11;;;;;;;20.88;9.30;;;;;;;;;;10412216;28;20235;-86
2022/12/10 07:28:12;;;;;;;20.80;7.65;;;;;;;;;;10434328;28;20207;-86
2022/12/10 07:33:13;;;;;;;19.40;8.47;;;;;;;;;;10433599;28;20250;-84
2022/12/10 07:38:15;;;;;;;21.58;7.90;;;;;;;;;;10434063;28;20218;-85
2022/12/10 07:43:16;;;;;;;24.88;9.60;;;;;;;;;;10431158;28;20214;-84
2022/12/10 07:48:17;;;;;;;17.57;8.47;;;;;;;;;;10438963;28;20242;-85
2022/12/10 07:53:18;;;;;;;21.35;9.05;;;;;;;;;;10439687;28;20703;-85
2022/12/10 07:58:19;;;;;;;17.27;8.05;;;;;;;;;;10439864;28;20250;-84
2022/12/10 08:03:20;;;;;;;16.60;7.95;;;;;;;;;;10432558;28;20218;-82
2022/12/10 08:08:21;;;;;;;18.10;8.75;;;;;;;;;;10430202;28;20298;-86
2022/12/10 08:13:22;;;;;;;21.60;8.48;;;;;;;;;;10443380;28;20231;-86
2022/12/10 08:18:23;;;;;;;14.30;7.20;;;;;;;;;;10438647;28;20210;-87
2022/12/10 08:23:25;;;;;;;19.77;8.38;;;;;;;;;;10446254;28;20227;-87
2022/12/10 08:28:26;;;;;;;26.35;9.20;;;;;;;;;;10448079;28;20207;-87
2022/12/10 08:33:27;;;;;;;21.83;9.52;;;;;;;;;;10468357;28;20215;-87
2022/12/10 08:38:30;;;;;;;19.92;8.38;;;;;;;;;;10437087;28;20629;-86
2022/12/10 08:43:31;;;;;;;19.88;8.25;;;;;;;;;;10439098;28;20235;-85
2022/12/10 08:48:32;;;;;;;17.30;7.35;;;;;;;;;;10436260;28;20211;-85
2022/12/10 08:53:34;;;;;;;21.15;9.25;;;;;;;;;;10435802;28;20214;-87
2022/12/10 08:58:36;;;;;;;18.80;7.38;;;;;;;;;;10437973;28;20645;-87
2022/12/10 09:03:38;;;;;;;18.00;8.07;;;;;;;;;;10472211;28;20245;-88
2022/12/10 09:08:39;;;;;;;23.42;8.50;;;;;;;;;;10440260;28;20254;-86
2022/12/10 09:13:40;;;;;;;13.98;7.10;;;;;;;;;;10436817;28;20246;-86
2022/12/10 09:18:41;;;;;;;15.00;8.18;;;;;;;;;;10453572;28;20302;-85
2022/12/10 09:23:43;;;;;;;17.45;8.55;;;;;;;;;;10450225;28;20234;-86
2022/12/10 09:28:44;;;;;;;14.40;7.70;;;;;;;;;;10442115;28;20211;-86
2022/12/10 09:33:46;;;;;;;17.45;8.75;;;;;;;;;;10415165;28;20687;-86
2022/12/10 09:38:47;;;;;;;18.42;9.18;;;;;;;;;;10427392;28;20303;-86
2022/12/10 09:43:55;;;;;;;18.20;8.20;;;;;;;;;;10455946;28;20249;-86
2022/12/10 09:49:15;;;;;;;17.25;7.53;;;;;;;;;;10449557;28;20298;-86
2022/12/10 09:54:16;;;;;;;13.57;7.25;;;;;;;;;;10431021;28;20237;-85
2022/12/10 09:59:20;;;;;;;17.42;7.35;;;;;;;;;;10420976;28;20223;-80
2022/12/10 10:04:21;;;;;;;15.55;7.45;;;;;;;;;;10424904;28;20808;-81
2022/12/10 10:09:22;;;;;;;10.40;6.13;;;;;;;;;;10426015;28;20225;-83
2022/12/10 10:14:26;;;;;;;15.70;7.82;;;;;;;;;;10444511;28;20215;-83
2022/12/10 10:19:33;;;;;;;11.73;6.90;;;;;;;;;;10437602;28;20745;-85
2022/12/10 10:24:36;;;;;;;15.68;8.25;;;;;;;;;;10419170;28;20223;-84
2022/12/10 10:29:37;;;;;;;14.52;7.35;;;;;;;;;;10426459;28;20220;-83
2022/12/10 10:34:39;;;;;;;13.73;7.47;;;;;;;;;;10424787;28;20588;-83
2022/12/10 10:39:46;;;;;;;15.00;7.22;;;;;;;;;;10412687;28;20230;-83
2022/12/10 10:44:47;;;;;;;8.67;5.17;;;;;;;;;;10416842;28;20211;-83
2022/12/10 10:49:48;;;;;;;7.33;5.00;;;;;;;;;;10428383;28;20211;-82
2022/12/10 10:54:50;;;;;;;14.37;8.00;;;;;;;;;;10426405;28;20255;-83
2022/12/10 10:59:55;;;;;;;11.87;6.43;;;;;;;;;;10421114;28;20230;-82
2022/12/10 11:04:59;;;;;;;10.63;7.03;;;;;;;;;;10413982;28;20222;-81
2022/12/10 11:10:01;;;;;;;12.27;7.38;;;;;;;;;;10434555;28;20215;-86
2022/12/10 11:15:14;;;;;;;10.57;6.53;;;;;;;;;;10442165;28;20247;-82
2022/12/10 11:20:17;;;;;;;13.90;7.55;;;;;;;;;;10450128;28;20717;-84
2022/12/10 11:25:21;;;;;;;11.68;6.03;;;;;;;;;;10452327;28;20230;-84
2022/12/10 11:30:23;;;;;;;15.82;6.78;;;;;;;;;;10457137;28;20763;-85
2022/12/10 11:35:37;;;;;;;9.85;6.05;;;;;;;;;;10430638;28;20297;-85
2022/12/10 11:40:38;;;;;;;10.98;5.13;;;;;;;;;;10426670;28;21080;-84
2022/12/10 11:45:54;;;;;;;8.40;5.80;;;;;;;;;;10462351;28;20242;-85
2022/12/10 11:51:06;;;;;;;10.18;5.68;;;;;;;;;;10439116;28;20265;-84
2022/12/10 11:56:19;;;;;;;11.87;6.63;;;;;;;;;;10435145;28;20214;-86
2022/12/10 12:01:46;;;;;;;9.50;5.75;;;;;;;;;;10467075;28;20203;-86
2022/12/10 12:06:57;;;;;;;11.32;5.80;;;;;;;;;;10422546;28;20242;-81
2022/12/10 12:12:16;;;;;;;12.70;6.38;;;;;;;;;;10421501;28;20215;-81
2022/12/10 12:17:20;;;;;;;10.55;5.60;;;;;;;;;;10442036;28;20206;-82
2022/12/10 12:22:35;;;;;;;8.60;5.70;;;;;;;;;;10415653;28;20257;-83
2022/12/10 12:27:40;;;;;;;8.45;5.80;;;;;;;;;;10453709;28;20226;-83
2022/12/10 12:32:42;;;;;;;10.57;6.25;;;;;;;;;;10419033;28;20657;-81
2022/12/10 12:37:52;;;;;;;8.82;5.70;;;;;;;;;;10421737;28;20211;-80
2022/12/10 12:42:58;;;;;;;8.30;5.60;;;;;;;;;;10430584;28;20227;-81
2022/12/10 12:48:22;;;;;;;8.27;5.25;;;;;;;;;;10440019;28;20269;-81
2022/12/10 12:53:24;;;;;;;10.73;5.23;;;;;;;;;;10421875;28;20261;-81
2022/12/10 12:58:38;;;;;;;9.15;5.38;;;;;;;;;;10427804;28;20218;-82
2022/12/10 13:03:41;;;;;;;7.78;4.88;;;;;;;;;;10430540;28;20227;-80
2022/12/10 13:08:47;;;;;;;11.73;6.22;;;;;;;;;;10423946;28;20250;-81
2022/12/10 13:14:04;;;;;;;5.70;5.15;;;;;;;;;;10428798;28;20299;-81
2022/12/10 13:19:20;;;;;;;7.32;5.10;;;;;;;;;;10434429;28;20213;-82
2022/12/10 13:24:22;;;;;;;8.25;5.00;;;;;;;;;;10423853;28;20856;-82
2022/12/10 13:29:25;;;;;;;17.20;7.35;;;;;;;;;;10431968;28;20301;-75
2022/12/10 13:34:34;;;;;;;8.50;5.95;;;;;;;;;;10424742;28;20588;-81
2022/12/10 13:39:42;;;;;;;22.73;11.67;;;;;;;;;;10422932;28;20892;-81
2022/12/10 13:44:49;;;;;;;19.00;9.98;;;;;;;;;;10421267;28;20321;-81
2022/12/10 13:49:56;;;;;;;9.02;7.32;;;;;;;;;;10422912;28;20745;-81
2022/12/10 13:55:06;;;;;;;10.05;7.05;;;;;;;;;;10424693;28;20261;-80
2022/12/10 14:00:16;;;;;;;7.67;5.70;;;;;;;;;;10425243;28;20651;-80
2022/12/10 14:05:20;;;;;;;10.00;5.50;;;;;;;;;;10461313;28;20286;-78
2022/12/10 14:10:24;;;;;;;7.20;5.00;;;;;;;;;;10432318;28;20187;-83
2022/12/10 14:15:26;;;;;;;12.13;6.27;;;;;;;;;;10427456;28;20230;-82
2022/12/10 14:20:29;;;;;;;8.77;5.88;;;;;;;;;;10445339;28;20219;-83
2022/12/10 14:25:30;;;;;;;11.00;6.03;;;;;;;;;;10437614;28;20332;-86
2022/12/10 14:30:31;;;;;;;16.90;8.93;;;;;;;;;;10423724;28;20793;-81
2022/12/10 14:35:33;;;;;;;7.72;5.53;;;;;;;;;;10422798;28;20234;-81
2022/12/10 14:40:41;;;;;;;8.77;5.40;;;;;;;;;;10421543;28;20214;-82
2022/12/10 14:45:45;;;;;;;7.82;5.05;;;;;;;;;;10419508;28;20318;-82
2022/12/10 14:50:47;;;;;;;7.73;4.43;;;;;;;;;;10436357;28;20896;-83
2022/12/10 14:55:50;;;;;;;7.25;4.78;;;;;;;;;;10431764;28;20215;-84
2022/12/10 15:00:51;;;;;;;10.20;4.83;;;;;;;;;;10443970;28;20235;-83
2022/12/10 15:06:00;;;;;;;10.23;4.87;;;;;;;;;;10450046;28;20865;-82
2022/12/10 15:11:02;;;;;;;9.18;5.70;;;;;;;;;;10465633;28;20308;-85
2022/12/10 15:16:03;;;;;;;5.60;4.67;;;;;;;;;;10454418;28;20241;-76
2022/12/10 15:21:13;;;;;;;7.30;5.03;;;;;;;;;;10431481;28;20217;-80
2022/12/10 15:26:14;;;;;;;9.18;5.55;;;;;;;;;;10428448;28;20225;-82
2022/12/10 15:31:15;;;;;;;7.87;4.87;;;;;;;;;;10428274;28;20219;-79
2022/12/10 15:36:23;;;;;;;6.53;5.43;;;;;;;;;;10422397;28;20217;-80
2022/12/10 15:41:36;;;;;;;9.48;5.82;;;;;;;;;;10423881;28;20337;-80
2022/12/10 15:46:47;;;;;;;10.80;6.47;;;;;;;;;;10439552;28;20227;-84
2022/12/10 15:51:48;;;;;;;9.53;6.20;;;;;;;;;;10463190;28;20210;-79
2022/12/10 15:56:49;;;;;;;7.87;5.67;;;;;;;;;;10423557;28;20302;-79
2022/12/10 16:01:50;;;;;;;8.37;5.43;;;;;;;;;;10440544;28;20698;-80
2022/12/10 16:06:52;;;;;;;13.13;5.70;;;;;;;;;;10433275;28;20249;-76
2022/12/10 16:11:53;;;;;;;8.47;6.23;;;;;;;;;;10462586;28;20273;-80
2022/12/10 16:16:54;;;;;;;11.03;5.93;;;;;;;;;;10420180;28;20370;-78
2022/12/10 16:21:55;;;;;;;11.13;6.60;;;;;;;;;;10426011;28;20301;-80
2022/12/10 16:26:56;;;;;;;15.53;7.27;;;;;;;;;;10432701;28;20226;-75
2022/12/10 16:31:57;;;;;;;13.40;6.77;;;;;;;;;;10424304;28;20224;-81
2022/12/10 16:36:58;;;;;;;9.00;6.17;;;;;;;;;;10420851;28;20211;-79
2022/12/10 16:41:59;;;;;;;6.70;5.40;;;;;;;;;;10421786;28;20221;-79
2022/12/10 16:47:00;;;;;;;9.17;6.10;;;;;;;;;;10421316;28;20254;-79
2022/12/10 16:52:01;;;;;;;13.23;7.33;;;;;;;;;;10429645;28;20339;-78
2022/12/10 16:57:04;;;;;;;10.03;6.70;;;;;;;;;;10427011;28;20250;-78
2022/12/10 17:02:14;;;;;;;6.93;5.80;;;;;;;;;;10426871;28;20211;-83
2022/12/10 17:07:15;;;;;;;10.20;5.47;;;;;;;;;;10431902;28;20679;-89
2022/12/10 17:12:16;;;;;;;7.77;5.77;;;;;;;;;;10466870;28;20210;-75
2022/12/10 17:17:18;;;;;;;10.33;6.63;;;;;;;;;;10450878;28;20908;-82
2022/12/10 17:22:19;;;;;;;7.23;5.03;;;;;;;;;;10429746;28;20259;-79
2022/12/10 17:27:20;;;;;;;11.10;6.10;;;;;;;;;;10425472;28;20219;-78
2022/12/10 17:32:22;;;;;;;8.20;5.37;;;;;;;;;;10425401;28;20210;-82
2022/12/10 17:37:23;;;;;;;6.63;4.60;;;;;;;;;;10439907;28;20741;-84
2022/12/10 17:42:24;;;;;;;7.33;4.93;;;;;;;;;;10423804;28;20209;-83
2022/12/10 17:47:27;;;;;;;8.13;4.83;;;;;;;;;;10459773;28;20238;-83
2022/12/10 17:52:28;;;;;;;20.37;8.80;;;;;;;;;;10447484;28;20874;-81
2022/12/10 17:57:29;;;;;;;24.67;9.53;;;;;;;;;;10418705;28;20578;-81
2022/12/10 18:02:30;;;;;;;8.63;5.00;;;;;;;;;;10425145;28;21122;-82
2022/12/10 18:07:31;;;;;;;7.10;4.80;;;;;;;;;;10425183;28;20211;-82
2022/12/10 18:12:33;;;;;;;8.20;4.93;;;;;;;;;;10438080;28;20219;-81
2022/12/10 18:17:34;;;;;;;7.22;5.40;;;;;;;;;;10421745;28;20223;-82
2022/12/10 18:22:35;;;;;;;7.95;5.55;;;;;;;;;;10472021;28;20228;-81
2022/12/10 18:27:36;;;;;;;4.50;4.07;;;;;;;;;;10422601;28;20566;-79
2022/12/10 18:32:37;;;;;;;6.53;3.47;;;;;;;;;;10417642;28;20241;-79
2022/12/10 18:37:39;;;;;;;3.87;3.57;;;;;;;;;;10422850;28;20229;-76
2022/12/10 18:42:40;;;;;;;4.88;3.28;;;;;;;;;;10406467;28;20357;-74
2022/12/10 18:47:41;;;;;;;3.33;2.95;;;;;;;;;;10413112;28;20207;-73
2022/12/10 18:52:42;;;;;;;3.93;3.27;;;;;;;;;;10403125;28;20223;-73
2022/12/10 18:57:43;;;;;;;3.60;3.30;;;;;;;;;;10418252;28;20594;-79
2022/12/10 19:02:45;;;;;;;3.77;2.43;;;;;;;;;;10417895;28;20211;-76
2022/12/10 19:07:46;;;;;;;2.97;2.73;;;;;;;;;;10422613;28;20364;-75
2022/12/10 19:12:48;;;;;;;3.13;2.87;;;;;;;;;;10412197;28;20226;-73
2022/12/10 19:17:49;;;;;;;7.80;3.63;;;;;;;;;;10405447;28;20219;-71
2022/12/10 19:22:51;;;;;;;8.23;3.30;;;;;;;;;;10415290;28;20397;-86
2022/12/10 19:27:53;;;;;;;3.83;3.53;;;;;;;;;;10437970;28;20406;-75
2022/12/10 19:32:54;;;;;;;2.90;2.73;;;;;;;;;;10418793;28;20571;-73
2022/12/10 19:37:55;;;;;;;4.00;3.10;;;;;;;;;;10412104;28;21206;-74
2022/12/10 19:42:57;;;;;;;3.30;3.00;;;;;;;;;;10446303;28;20211;-73
2022/12/10 19:47:58;;;;;;;3.60;3.30;;;;;;;;;;10428312;28;20239;-74
2022/12/10 19:52:59;;;;;;;4.83;3.80;;;;;;;;;;10413587;28;20679;-74
2022/12/10 19:58:00;;;;;;;5.75;3.58;;;;;;;;;;10412814;28;20207;-77
2022/12/10 20:03:01;;;;;;;5.23;4.40;;;;;;;;;;10419436;28;20214;-76
2022/12/10 20:08:05;;;;;;;3.50;2.87;;;;;;;;;;10430635;28;21116;-75
2022/12/10 20:13:06;;;;;;;1.97;1.77;;;;;;;;;;10412981;28;20240;-75
2022/12/10 20:18:07;;;;;;;5.80;2.77;;;;;;;;;;10421692;28;20977;-71
2022/12/10 20:23:08;;;;;;;4.97;3.57;;;;;;;;;;10416040;28;20214;-72
2022/12/10 20:28:11;;;;;;;2.47;2.27;;;;;;;;;;10426547;28;20211;-74
2022/12/10 20:33:12;;;;;;;3.10;2.90;;;;;;;;;;10421730;28;20932;-76
2022/12/10 20:38:14;;;;;;;3.87;2.00;;;;;;;;;;10417548;28;20729;-75
2022/12/10 20:43:15;;;;;;;2.17;2.07;;;;;;;;;;10415273;28;20211;-71
2022/12/10 20:48:16;;;;;;;2.67;2.47;;;;;;;;;;10422636;28;20211;-73
2022/12/10 20:53:17;;;;;;;3.37;1.60;;;;;;;;;;10406835;28;20667;-78
2022/12/10 20:58:18;;;;;;;3.97;3.53;;;;;;;;;;10427691;28;20770;-74
2022/12/10 21:03:19;;;;;;;4.43;3.77;;;;;;;;;;10404744;28;20229;-75
2022/12/10 21:08:21;;;;;;;3.50;2.50;;;;;;;;;;10405362;28;20716;-74
2022/12/10 21:13:24;;;;;;;2.53;2.30;;;;;;;;;;10396416;28;20223;-80
2022/12/10 21:18:25;;;;;;;2.80;2.53;;;;;;;;;;10411109;28;20221;-72
2022/12/10 21:23:27;;;;;;;3.23;2.90;;;;;;;;;;10416363;28;20257;-71
2022/12/10 21:28:29;;;;;;;2.30;2.20;;;;;;;;;;10418130;28;20207;-70
2022/12/10 21:33:30;;;;;;;3.80;2.87;;;;;;;;;;10416162;28;20345;-71
2022/12/10 21:38:31;;;;;;;2.73;2.53;;;;;;;;;;10412789;28;20280;-71
2022/12/10 21:43:32;;;;;;;3.97;3.50;;;;;;;;;;10415484;28;20733;-84
2022/12/10 21:48:33;;;;;;;3.57;3.00;;;;;;;;;;10409779;28;20268;-76
2022/12/10 21:53:34;;;;;;;3.90;3.20;;;;;;;;;;10406300;28;20215;-75
2022/12/10 21:58:35;;;;;;;4.73;3.20;;;;;;;;;;10416390;28;20210;-75
2022/12/10 22:03:37;;;;;;;5.73;3.33;;;;;;;;;;10414364;28;20218;-76
2022/12/10 22:08:38;;;;;;;5.15;3.92;;;;;;;;;;10414682;28;20226;-76
2022/12/10 22:13:39;;;;;;;3.17;2.67;;;;;;;;;;10432650;28;20218;-75
2022/12/10 22:18:40;;;;;;;5.18;4.03;;;;;;;;;;10415492;28;20220;-76
2022/12/10 22:23:41;;;;;;;3.80;3.37;;;;;;;;;;10415839;28;20222;-76
2022/12/10 22:28:43;;;;;;;2.77;2.57;;;;;;;;;;10416982;28;20223;-75
2022/12/10 22:33:44;;;;;;;3.40;3.10;;;;;;;;;;10415215;28;20216;-74
2022/12/10 22:38:46;;;;;;;4.37;2.63;;;;;;;;;;10445790;28;20219;-76
2022/12/10 22:43:47;;;;;;;3.90;3.43;;;;;;;;;;10421841;28;20219;-75
2022/12/10 22:48:48;;;;;;;4.23;3.80;;;;;;;;;;10415827;28;20202;-74
2022/12/10 22:53:49;;;;;;;5.63;3.80;;;;;;;;;;10453510;28;20216;-74
2022/12/10 22:58:52;;;;;;;3.57;3.27;;;;;;;;;;10417710;28;20314;-75
2022/12/10 23:03:54;;;;;;;3.73;3.43;;;;;;;;;;10386981;28;20798;-74
2022/12/10 23:08:55;;;;;;;3.43;3.20;;;;;;;;;;10406665;28;20211;-74
2022/12/10 23:13:56;;;;;;;4.27;3.27;;;;;;;;;;10380807;28;20246;-74
2022/12/10 23:18:57;;;;;;;6.57;3.87;;;;;;;;;;10416166;28;20314;-75
2022/12/10 23:23:58;;;;;;;4.97;3.50;;;;;;;;;;10426717;28;20273;-74
2022/12/10 23:28:59;;;;;;;3.97;3.40;;;;;;;;;;10429929;28;20518;-74
2022/12/10 23:34:00;;;;;;;4.13;3.67;;;;;;;;;;10460207;28;20215;-74
2022/12/10 23:39:01;;;;;;;2.87;2.60;;;;;;;;;;10425893;28;20583;-74
2022/12/10 23:44:02;;;;;;;4.97;3.23;;;;;;;;;;10420758;28;20222;-74
2022/12/10 23:49:03;;;;;;;3.27;2.57;;;;;;;;;;10414824;28;20238;-74
2022/12/10 23:54:05;;;;;;;6.07;3.10;;;;;;;;;;10443232;28;20210;-73
2022/12/10 23:59:06;;;;;;;3.47;2.87;;;;;;;;;;10418468;28;20219;-74
